sensor_id;sensor_type;location;lat;lon;timestamp;P1;durP1;ratioP1;P2;durP2;ratioP2
16115;SDS011;8162;47.104;15.432;2023-08-17T00:00:14;15.20;;;13.77;;
16115;SDS011;8162;47.104;15.432;2023-08-17T00:03:15;14.90;;;13.40;;
16115;SDS011;8162;47.104;15.432;2023-08-17T00:06:16;17.53;;;15.17;;
16115;SDS011;8162;47.104;15.432;2023-08-17T00:09:17;14.70;;;13.30;;
16115;SDS011;8162;47.104;15.432;2023-08-17T00:12:18;13.90;;;12.60;;
16115;SDS011;8162;47.104;15.432;2023-08-17T00:15:19;15.33;;;13.30;;
16115;SDS011;8162;47.104;15.432;2023-08-17T00:18:20;14.13;;;12.93;;
16115;SDS011;8162;47.104;15.432;2023-08-17T00:21:21;14.67;;;13.30;;
16115;SDS011;8162;47.104;15.432;2023-08-17T00:24:22;14.73;;;13.30;;
16115;SDS011;8162;47.104;15.432;2023-08-17T00:27:23;15.57;;;13.90;;
16115;SDS011;8162;47.104;15.432;2023-08-17T00:30:24;15.00;;;13.50;;
16115;SDS011;8162;47.104;15.432;2023-08-17T00:33:25;15.73;;;14.13;;
16115;SDS011;8162;47.104;15.432;2023-08-17T00:36:26;17.13;;;14.73;;
16115;SDS011;8162;47.104;15.432;2023-08-17T00:39:27;15.17;;;13.80;;
16115;SDS011;8162;47.104;15.432;2023-08-17T00:42:28;15.53;;;14.03;;
16115;SDS011;8162;47.104;15.432;2023-08-17T00:45:29;15.13;;;13.67;;
16115;SDS011;8162;47.104;15.432;2023-08-17T00:48:31;15.23;;;13.73;;
16115;SDS011;8162;47.104;15.432;2023-08-17T00:51:32;14.27;;;12.83;;
16115;SDS011;8162;47.104;15.432;2023-08-17T00:54:34;15.73;;;14.30;;
16115;SDS011;8162;47.104;15.432;2023-08-17T00:57:35;15.00;;;13.70;;
16115;SDS011;8162;47.104;15.432;2023-08-17T01:00:36;16.37;;;14.30;;
16115;SDS011;8162;47.104;15.432;2023-08-17T01:03:39;14.87;;;13.50;;
16115;SDS011;8162;47.104;15.432;2023-08-17T01:06:43;14.97;;;13.57;;
16115;SDS011;8162;47.104;15.432;2023-08-17T01:09:44;15.60;;;14.03;;
16115;SDS011;8162;47.104;15.432;2023-08-17T01:12:50;15.80;;;14.03;;
16115;SDS011;8162;47.104;15.432;2023-08-17T01:15:55;16.13;;;14.43;;
16115;SDS011;8162;47.104;15.432;2023-08-17T01:18:57;17.80;;;16.07;;
16115;SDS011;8162;47.104;15.432;2023-08-17T01:22:05;17.57;;;15.37;;
16115;SDS011;8162;47.104;15.432;2023-08-17T01:25:08;15.93;;;14.43;;
16115;SDS011;8162;47.104;15.432;2023-08-17T01:28:09;16.07;;;13.67;;
16115;SDS011;8162;47.104;15.432;2023-08-17T01:31:19;16.83;;;15.20;;
16115;SDS011;8162;47.104;15.432;2023-08-17T01:34:22;15.87;;;14.20;;
16115;SDS011;8162;47.104;15.432;2023-08-17T01:37:26;16.77;;;15.27;;
16115;SDS011;8162;47.104;15.432;2023-08-17T01:40:30;17.07;;;14.47;;
16115;SDS011;8162;47.104;15.432;2023-08-17T01:43:32;17.07;;;15.43;;
16115;SDS011;8162;47.104;15.432;2023-08-17T01:46:34;16.00;;;14.63;;
16115;SDS011;8162;47.104;15.432;2023-08-17T01:49:35;14.23;;;12.87;;
16115;SDS011;8162;47.104;15.432;2023-08-17T01:52:36;16.27;;;14.67;;
16115;SDS011;8162;47.104;15.432;2023-08-17T01:55:37;16.07;;;14.60;;
16115;SDS011;8162;47.104;15.432;2023-08-17T01:58:38;14.93;;;13.60;;
16115;SDS011;8162;47.104;15.432;2023-08-17T02:01:39;17.47;;;14.70;;
16115;SDS011;8162;47.104;15.432;2023-08-17T02:04:40;16.93;;;15.13;;
16115;SDS011;8162;47.104;15.432;2023-08-17T02:07:41;15.20;;;13.63;;
16115;SDS011;8162;47.104;15.432;2023-08-17T02:10:43;15.37;;;13.83;;
16115;SDS011;8162;47.104;15.432;2023-08-17T02:13:44;15.73;;;14.23;;
16115;SDS011;8162;47.104;15.432;2023-08-17T02:16:45;16.43;;;14.63;;
16115;SDS011;8162;47.104;15.432;2023-08-17T02:19:47;16.67;;;15.03;;
16115;SDS011;8162;47.104;15.432;2023-08-17T02:22:48;16.37;;;14.87;;
16115;SDS011;8162;47.104;15.432;2023-08-17T02:25:49;16.70;;;14.67;;
16115;SDS011;8162;47.104;15.432;2023-08-17T02:28:50;16.07;;;14.37;;
16115;SDS011;8162;47.104;15.432;2023-08-17T02:31:51;16.30;;;14.67;;
16115;SDS011;8162;47.104;15.432;2023-08-17T02:34:52;21.77;;;15.73;;
16115;SDS011;8162;47.104;15.432;2023-08-17T02:37:53;16.07;;;14.77;;
16115;SDS011;8162;47.104;15.432;2023-08-17T02:40:54;16.63;;;14.93;;
16115;SDS011;8162;47.104;15.432;2023-08-17T02:43:55;16.43;;;14.80;;
16115;SDS011;8162;47.104;15.432;2023-08-17T02:46:56;16.67;;;15.00;;
16115;SDS011;8162;47.104;15.432;2023-08-17T02:49:57;16.90;;;15.33;;
16115;SDS011;8162;47.104;15.432;2023-08-17T02:52:58;16.90;;;15.30;;
16115;SDS011;8162;47.104;15.432;2023-08-17T02:55:59;16.73;;;15.07;;
16115;SDS011;8162;47.104;15.432;2023-08-17T02:59:01;16.57;;;15.03;;
16115;SDS011;8162;47.104;15.432;2023-08-17T03:02:02;16.70;;;15.20;;
16115;SDS011;8162;47.104;15.432;2023-08-17T03:05:03;16.13;;;14.50;;
16115;SDS011;8162;47.104;15.432;2023-08-17T03:08:04;16.40;;;14.80;;
16115;SDS011;8162;47.104;15.432;2023-08-17T03:11:05;16.70;;;15.20;;
16115;SDS011;8162;47.104;15.432;2023-08-17T03:14:07;15.80;;;14.30;;
16115;SDS011;8162;47.104;15.432;2023-08-17T03:17:08;16.03;;;14.43;;
16115;SDS011;8162;47.104;15.432;2023-08-17T03:20:09;17.70;;;15.77;;
16115;SDS011;8162;47.104;15.432;2023-08-17T03:23:10;17.57;;;15.67;;
16115;SDS011;8162;47.104;15.432;2023-08-17T03:26:11;18.33;;;16.73;;
16115;SDS011;8162;47.104;15.432;2023-08-17T03:29:12;18.57;;;16.97;;
16115;SDS011;8162;47.104;15.432;2023-08-17T03:32:13;18.60;;;16.83;;
16115;SDS011;8162;47.104;15.432;2023-08-17T03:35:14;18.70;;;16.47;;
16115;SDS011;8162;47.104;15.432;2023-08-17T03:38:15;17.73;;;16.07;;
16115;SDS011;8162;47.104;15.432;2023-08-17T03:41:16;18.97;;;17.17;;
16115;SDS011;8162;47.104;15.432;2023-08-17T03:44:17;19.67;;;17.57;;
16115;SDS011;8162;47.104;15.432;2023-08-17T03:47:19;18.70;;;17.10;;
16115;SDS011;8162;47.104;15.432;2023-08-17T03:50:20;18.97;;;17.07;;
16115;SDS011;8162;47.104;15.432;2023-08-17T03:53:21;18.93;;;16.83;;
16115;SDS011;8162;47.104;15.432;2023-08-17T03:56:22;19.43;;;17.33;;
16115;SDS011;8162;47.104;15.432;2023-08-17T03:59:23;20.17;;;18.27;;
16115;SDS011;8162;47.104;15.432;2023-08-17T04:02:24;20.03;;;18.00;;
16115;SDS011;8162;47.104;15.432;2023-08-17T04:05:27;20.17;;;18.17;;
16115;SDS011;8162;47.104;15.432;2023-08-17T04:08:28;19.40;;;17.37;;
16115;SDS011;8162;47.104;15.432;2023-08-17T04:11:29;17.97;;;16.47;;
16115;SDS011;8162;47.104;15.432;2023-08-17T04:14:30;18.40;;;16.67;;
16115;SDS011;8162;47.104;15.432;2023-08-17T04:17:31;19.13;;;17.13;;
16115;SDS011;8162;47.104;15.432;2023-08-17T04:20:32;18.60;;;16.90;;
16115;SDS011;8162;47.104;15.432;2023-08-17T04:23:33;19.40;;;17.50;;
16115;SDS011;8162;47.104;15.432;2023-08-17T04:26:34;21.97;;;17.87;;
16115;SDS011;8162;47.104;15.432;2023-08-17T04:29:35;19.20;;;17.20;;
16115;SDS011;8162;47.104;15.432;2023-08-17T04:32:36;19.13;;;17.23;;
16115;SDS011;8162;47.104;15.432;2023-08-17T04:35:37;20.43;;;18.53;;
16115;SDS011;8162;47.104;15.432;2023-08-17T04:38:38;22.03;;;19.73;;
16115;SDS011;8162;47.104;15.432;2023-08-17T04:41:39;20.90;;;19.00;;
16115;SDS011;8162;47.104;15.432;2023-08-17T04:44:40;18.97;;;17.13;;
16115;SDS011;8162;47.104;15.432;2023-08-17T04:47:41;19.83;;;17.83;;
16115;SDS011;8162;47.104;15.432;2023-08-17T04:50:43;18.80;;;16.93;;
16115;SDS011;8162;47.104;15.432;2023-08-17T04:53:44;20.93;;;18.87;;
16115;SDS011;8162;47.104;15.432;2023-08-17T04:56:45;20.27;;;18.27;;
16115;SDS011;8162;47.104;15.432;2023-08-17T04:59:46;21.27;;;19.17;;
16115;SDS011;8162;47.104;15.432;2023-08-17T05:02:47;21.47;;;19.57;;
16115;SDS011;8162;47.104;15.432;2023-08-17T05:05:48;20.43;;;18.53;;
16115;SDS011;8162;47.104;15.432;2023-08-17T05:08:49;20.93;;;18.73;;
16115;SDS011;8162;47.104;15.432;2023-08-17T05:11:50;21.80;;;19.47;;
16115;SDS011;8162;47.104;15.432;2023-08-17T05:14:51;22.13;;;19.87;;
16115;SDS011;8162;47.104;15.432;2023-08-17T05:17:52;21.77;;;19.87;;
16115;SDS011;8162;47.104;15.432;2023-08-17T05:20:53;20.87;;;19.07;;
16115;SDS011;8162;47.104;15.432;2023-08-17T05:23:55;20.70;;;18.63;;
16115;SDS011;8162;47.104;15.432;2023-08-17T05:26:56;20.97;;;19.07;;
16115;SDS011;8162;47.104;15.432;2023-08-17T05:29:57;20.17;;;18.57;;
16115;SDS011;8162;47.104;15.432;2023-08-17T05:32:58;22.40;;;20.10;;
16115;SDS011;8162;47.104;15.432;2023-08-17T05:35:59;21.87;;;19.67;;
16115;SDS011;8162;47.104;15.432;2023-08-17T05:39:01;22.20;;;20.03;;
16115;SDS011;8162;47.104;15.432;2023-08-17T05:42:02;22.83;;;20.63;;
16115;SDS011;8162;47.104;15.432;2023-08-17T05:45:03;20.20;;;18.40;;
16115;SDS011;8162;47.104;15.432;2023-08-17T05:48:04;20.00;;;18.10;;
16115;SDS011;8162;47.104;15.432;2023-08-17T05:51:06;22.37;;;20.17;;
16115;SDS011;8162;47.104;15.432;2023-08-17T05:54:07;21.47;;;19.67;;
16115;SDS011;8162;47.104;15.432;2023-08-17T05:57:08;23.37;;;21.23;;
16115;SDS011;8162;47.104;15.432;2023-08-17T06:00:10;23.73;;;21.33;;
16115;SDS011;8162;47.104;15.432;2023-08-17T06:03:12;22.80;;;20.67;;
16115;SDS011;8162;47.104;15.432;2023-08-17T06:06:13;22.27;;;20.13;;
16115;SDS011;8162;47.104;15.432;2023-08-17T06:09:14;22.13;;;20.10;;
16115;SDS011;8162;47.104;15.432;2023-08-17T06:12:15;21.87;;;19.87;;
16115;SDS011;8162;47.104;15.432;2023-08-17T06:15:17;23.07;;;20.93;;
16115;SDS011;8162;47.104;15.432;2023-08-17T06:18:19;20.73;;;18.77;;
16115;SDS011;8162;47.104;15.432;2023-08-17T06:21:21;20.97;;;18.90;;
16115;SDS011;8162;47.104;15.432;2023-08-17T06:24:22;20.50;;;18.50;;
16115;SDS011;8162;47.104;15.432;2023-08-17T06:27:23;20.27;;;18.47;;
16115;SDS011;8162;47.104;15.432;2023-08-17T06:30:25;21.40;;;19.30;;
16115;SDS011;8162;47.104;15.432;2023-08-17T06:33:26;20.93;;;19.13;;
16115;SDS011;8162;47.104;15.432;2023-08-17T06:36:30;19.80;;;18.03;;
16115;SDS011;8162;47.104;15.432;2023-08-17T06:39:31;20.87;;;18.83;;
16115;SDS011;8162;47.104;15.432;2023-08-17T06:42:32;19.57;;;17.87;;
16115;SDS011;8162;47.104;15.432;2023-08-17T06:45:34;26.13;;;19.37;;
16115;SDS011;8162;47.104;15.432;2023-08-17T06:48:35;21.57;;;19.67;;
16115;SDS011;8162;47.104;15.432;2023-08-17T06:51:36;21.23;;;19.30;;
16115;SDS011;8162;47.104;15.432;2023-08-17T06:54:37;20.53;;;18.33;;
16115;SDS011;8162;47.104;15.432;2023-08-17T06:57:38;20.33;;;18.50;;
16115;SDS011;8162;47.104;15.432;2023-08-17T07:00:39;21.90;;;19.80;;
16115;SDS011;8162;47.104;15.432;2023-08-17T07:03:41;20.53;;;18.53;;
16115;SDS011;8162;47.104;15.432;2023-08-17T07:06:42;20.93;;;18.77;;
16115;SDS011;8162;47.104;15.432;2023-08-17T07:09:43;19.77;;;18.07;;
16115;SDS011;8162;47.104;15.432;2023-08-17T07:12:44;21.23;;;19.00;;
16115;SDS011;8162;47.104;15.432;2023-08-17T07:15:45;21.57;;;19.40;;
16115;SDS011;8162;47.104;15.432;2023-08-17T07:18:46;20.77;;;18.87;;
16115;SDS011;8162;47.104;15.432;2023-08-17T07:21:47;20.87;;;18.83;;
16115;SDS011;8162;47.104;15.432;2023-08-17T07:24:48;21.03;;;18.87;;
16115;SDS011;8162;47.104;15.432;2023-08-17T07:27:49;23.33;;;21.13;;
16115;SDS011;8162;47.104;15.432;2023-08-17T07:30:50;21.73;;;19.67;;
16115;SDS011;8162;47.104;15.432;2023-08-17T07:33:51;19.00;;;17.20;;
16115;SDS011;8162;47.104;15.432;2023-08-17T07:36:52;22.47;;;20.27;;
16115;SDS011;8162;47.104;15.432;2023-08-17T07:39:53;19.80;;;17.90;;
16115;SDS011;8162;47.104;15.432;2023-08-17T07:42:55;20.47;;;18.63;;
16115;SDS011;8162;47.104;15.432;2023-08-17T07:45:56;19.30;;;17.67;;
16115;SDS011;8162;47.104;15.432;2023-08-17T07:48:57;19.60;;;17.90;;
16115;SDS011;8162;47.104;15.432;2023-08-17T07:51:59;18.40;;;16.80;;
16115;SDS011;8162;47.104;15.432;2023-08-17T07:55:00;19.27;;;17.57;;
16115;SDS011;8162;47.104;15.432;2023-08-17T07:58:01;17.30;;;15.90;;
16115;SDS011;8162;47.104;15.432;2023-08-17T08:01:02;18.10;;;16.60;;
16115;SDS011;8162;47.104;15.432;2023-08-17T08:04:03;15.83;;;14.53;;
16115;SDS011;8162;47.104;15.432;2023-08-17T08:07:04;15.47;;;14.27;;
16115;SDS011;8162;47.104;15.432;2023-08-17T08:10:05;16.50;;;15.10;;
16115;SDS011;8162;47.104;15.432;2023-08-17T08:13:06;17.70;;;16.30;;
16115;SDS011;8162;47.104;15.432;2023-08-17T08:16:07;15.87;;;14.57;;
16115;SDS011;8162;47.104;15.432;2023-08-17T08:19:08;17.27;;;15.77;;
16115;SDS011;8162;47.104;15.432;2023-08-17T08:22:09;16.50;;;15.10;;
16115;SDS011;8162;47.104;15.432;2023-08-17T08:25:11;15.87;;;14.47;;
16115;SDS011;8162;47.104;15.432;2023-08-17T08:28:12;14.97;;;13.70;;
16115;SDS011;8162;47.104;15.432;2023-08-17T08:31:13;14.40;;;13.20;;
16115;SDS011;8162;47.104;15.432;2023-08-17T08:34:14;13.60;;;12.40;;
16115;SDS011;8162;47.104;15.432;2023-08-17T08:37:15;12.80;;;11.70;;
16115;SDS011;8162;47.104;15.432;2023-08-17T08:40:16;12.73;;;11.63;;
16115;SDS011;8162;47.104;15.432;2023-08-17T08:43:18;11.93;;;10.93;;
16115;SDS011;8162;47.104;15.432;2023-08-17T08:46:19;12.73;;;11.67;;
16115;SDS011;8162;47.104;15.432;2023-08-17T08:49:21;12.03;;;11.10;;
16115;SDS011;8162;47.104;15.432;2023-08-17T08:52:25;12.57;;;11.57;;
16115;SDS011;8162;47.104;15.432;2023-08-17T08:55:29;11.30;;;10.40;;
16115;SDS011;8162;47.104;15.432;2023-08-17T08:58:33;11.33;;;10.43;;
16115;SDS011;8162;47.104;15.432;2023-08-17T09:01:34;12.40;;;11.30;;
16115;SDS011;8162;47.104;15.432;2023-08-17T09:04:35;13.30;;;12.07;;
16115;SDS011;8162;47.104;15.432;2023-08-17T09:07:37;12.50;;;11.53;;
16115;SDS011;8162;47.104;15.432;2023-08-17T09:10:39;12.83;;;11.63;;
16115;SDS011;8162;47.104;15.432;2023-08-17T09:13:40;10.93;;;10.07;;
16115;SDS011;8162;47.104;15.432;2023-08-17T09:16:41;11.53;;;10.60;;
16115;SDS011;8162;47.104;15.432;2023-08-17T09:19:45;12.17;;;11.20;;
16115;SDS011;8162;47.104;15.432;2023-08-17T09:22:46;10.63;;;9.70;;
16115;SDS011;8162;47.104;15.432;2023-08-17T09:25:49;10.03;;;9.17;;
16115;SDS011;8162;47.104;15.432;2023-08-17T09:28:58;10.57;;;9.77;;
16115;SDS011;8162;47.104;15.432;2023-08-17T09:32:03;9.47;;;8.57;;
16115;SDS011;8162;47.104;15.432;2023-08-17T09:35:06;10.37;;;9.57;;
16115;SDS011;8162;47.104;15.432;2023-08-17T09:38:07;10.40;;;9.40;;
16115;SDS011;8162;47.104;15.432;2023-08-17T09:41:08;10.03;;;9.33;;
16115;SDS011;8162;47.104;15.432;2023-08-17T09:44:09;9.30;;;8.50;;
16115;SDS011;8162;47.104;15.432;2023-08-17T09:47:11;10.57;;;9.77;;
16115;SDS011;8162;47.104;15.432;2023-08-17T09:50:12;10.77;;;9.97;;
16115;SDS011;8162;47.104;15.432;2023-08-17T09:53:14;10.70;;;9.77;;
16115;SDS011;8162;47.104;15.432;2023-08-17T09:56:15;9.53;;;8.63;;
16115;SDS011;8162;47.104;15.432;2023-08-17T09:59:17;10.40;;;9.53;;
16115;SDS011;8162;47.104;15.432;2023-08-17T10:02:18;9.70;;;8.90;;
16115;SDS011;8162;47.104;15.432;2023-08-17T10:05:20;8.60;;;7.90;;
16115;SDS011;8162;47.104;15.432;2023-08-17T10:08:21;10.00;;;9.10;;
16115;SDS011;8162;47.104;15.432;2023-08-17T10:11:23;8.80;;;8.00;;
16115;SDS011;8162;47.104;15.432;2023-08-17T10:14:26;9.73;;;8.93;;
16115;SDS011;8162;47.104;15.432;2023-08-17T10:17:31;9.53;;;8.63;;
16115;SDS011;8162;47.104;15.432;2023-08-17T10:20:35;9.43;;;8.73;;
16115;SDS011;8162;47.104;15.432;2023-08-17T10:23:37;9.90;;;8.90;;
16115;SDS011;8162;47.104;15.432;2023-08-17T10:26:39;10.37;;;9.47;;
16115;SDS011;8162;47.104;15.432;2023-08-17T10:29:40;9.93;;;9.13;;
16115;SDS011;8162;47.104;15.432;2023-08-17T10:32:42;9.73;;;8.83;;
16115;SDS011;8162;47.104;15.432;2023-08-17T10:35:46;10.33;;;9.53;;
16115;SDS011;8162;47.104;15.432;2023-08-17T10:38:48;10.80;;;9.90;;
16115;SDS011;8162;47.104;15.432;2023-08-17T10:42:09;9.67;;;8.93;;
16115;SDS011;8162;47.104;15.432;2023-08-17T10:45:27;10.60;;;9.70;;
16115;SDS011;8162;47.104;15.432;2023-08-17T10:48:28;10.13;;;9.20;;
16115;SDS011;8162;47.104;15.432;2023-08-17T10:51:29;10.20;;;9.43;;
16115;SDS011;8162;47.104;15.432;2023-08-17T10:54:37;10.57;;;9.70;;
16115;SDS011;8162;47.104;15.432;2023-08-17T10:57:39;10.53;;;9.53;;
16115;SDS011;8162;47.104;15.432;2023-08-17T11:00:40;10.70;;;9.67;;
16115;SDS011;8162;47.104;15.432;2023-08-17T11:03:44;10.30;;;9.47;;
16115;SDS011;8162;47.104;15.432;2023-08-17T11:06:45;10.43;;;9.57;;
16115;SDS011;8162;47.104;15.432;2023-08-17T11:09:46;10.63;;;9.80;;
16115;SDS011;8162;47.104;15.432;2023-08-17T11:12:47;10.30;;;9.57;;
16115;SDS011;8162;47.104;15.432;2023-08-17T11:15:49;8.67;;;7.97;;
16115;SDS011;8162;47.104;15.432;2023-08-17T11:18:50;10.00;;;9.10;;
16115;SDS011;8162;47.104;15.432;2023-08-17T11:21:51;9.13;;;8.33;;
16115;SDS011;8162;47.104;15.432;2023-08-17T11:24:53;8.23;;;7.57;;
16115;SDS011;8162;47.104;15.432;2023-08-17T11:27:54;8.57;;;7.77;;
16115;SDS011;8162;47.104;15.432;2023-08-17T11:30:56;9.40;;;8.63;;
16115;SDS011;8162;47.104;15.432;2023-08-17T11:33:58;8.83;;;8.10;;
16115;SDS011;8162;47.104;15.432;2023-08-17T11:36:59;9.50;;;8.27;;
16115;SDS011;8162;47.104;15.432;2023-08-17T11:40:00;9.00;;;8.20;;
16115;SDS011;8162;47.104;15.432;2023-08-17T11:43:01;8.57;;;7.97;;
16115;SDS011;8162;47.104;15.432;2023-08-17T11:46:02;8.73;;;7.93;;
16115;SDS011;8162;47.104;15.432;2023-08-17T11:49:03;8.50;;;7.80;;
16115;SDS011;8162;47.104;15.432;2023-08-17T11:52:05;8.13;;;7.53;;
16115;SDS011;8162;47.104;15.432;2023-08-17T11:55:06;8.17;;;7.43;;
16115;SDS011;8162;47.104;15.432;2023-08-17T11:58:09;8.23;;;7.53;;
16115;SDS011;8162;47.104;15.432;2023-08-17T12:01:11;7.90;;;7.30;;
16115;SDS011;8162;47.104;15.432;2023-08-17T12:04:12;7.70;;;7.20;;
16115;SDS011;8162;47.104;15.432;2023-08-17T12:07:14;7.00;;;6.30;;
16115;SDS011;8162;47.104;15.432;2023-08-17T12:10:17;7.13;;;5.67;;
16115;SDS011;8162;47.104;15.432;2023-08-17T12:13:19;5.60;;;5.10;;
16115;SDS011;8162;47.104;15.432;2023-08-17T12:16:20;5.30;;;4.90;;
16115;SDS011;8162;47.104;15.432;2023-08-17T12:19:24;5.00;;;4.60;;
16115;SDS011;8162;47.104;15.432;2023-08-17T12:22:25;6.67;;;4.40;;
16115;SDS011;8162;47.104;15.432;2023-08-17T12:25:26;4.72;;;4.35;;
16115;SDS011;8162;47.104;15.432;2023-08-17T12:28:28;4.72;;;4.22;;
16115;SDS011;8162;47.104;15.432;2023-08-17T12:31:29;4.38;;;4.13;;
16115;SDS011;8162;47.104;15.432;2023-08-17T12:34:30;4.53;;;4.23;;
16115;SDS011;8162;47.104;15.432;2023-08-17T12:37:30;4.77;;;4.37;;
16115;SDS011;8162;47.104;15.432;2023-08-17T12:40:31;4.83;;;4.53;;
16115;SDS011;8162;47.104;15.432;2023-08-17T12:43:32;6.40;;;5.90;;
16115;SDS011;8162;47.104;15.432;2023-08-17T12:46:32;6.00;;;5.60;;
16115;SDS011;8162;47.104;15.432;2023-08-17T12:49:35;6.03;;;5.53;;
16115;SDS011;8162;47.104;15.432;2023-08-17T12:52:36;6.00;;;5.50;;
16115;SDS011;8162;47.104;15.432;2023-08-17T12:55:37;6.63;;;6.13;;
16115;SDS011;8162;47.104;15.432;2023-08-17T12:58:38;5.60;;;5.20;;
16115;SDS011;8162;47.104;15.432;2023-08-17T13:01:39;5.40;;;4.90;;
16115;SDS011;8162;47.104;15.432;2023-08-17T13:04:41;6.50;;;4.53;;
16115;SDS011;8162;47.104;15.432;2023-08-17T13:07:42;5.37;;;4.97;;
16115;SDS011;8162;47.104;15.432;2023-08-17T13:10:42;4.50;;;4.07;;
16115;SDS011;8162;47.104;15.432;2023-08-17T13:13:43;5.27;;;4.77;;
16115;SDS011;8162;47.104;15.432;2023-08-17T13:16:44;5.40;;;4.90;;
16115;SDS011;8162;47.104;15.432;2023-08-17T13:19:44;5.43;;;5.03;;
16115;SDS011;8162;47.104;15.432;2023-08-17T13:22:45;5.50;;;5.00;;
16115;SDS011;8162;47.104;15.432;2023-08-17T13:25:46;5.60;;;5.20;;
16115;SDS011;8162;47.104;15.432;2023-08-17T13:28:47;5.17;;;4.83;;
16115;SDS011;8162;47.104;15.432;2023-08-17T13:31:47;4.60;;;4.20;;
16115;SDS011;8162;47.104;15.432;2023-08-17T13:34:48;5.00;;;4.60;;
16115;SDS011;8162;47.104;15.432;2023-08-17T13:37:52;5.10;;;4.70;;
16115;SDS011;8162;47.104;15.432;2023-08-17T13:40:57;4.50;;;4.20;;
16115;SDS011;8162;47.104;15.432;2023-08-17T13:43:58;5.27;;;4.07;;
16115;SDS011;8162;47.104;15.432;2023-08-17T13:47:00;4.57;;;4.27;;
16115;SDS011;8162;47.104;15.432;2023-08-17T13:50:01;4.40;;;3.93;;
16115;SDS011;8162;47.104;15.432;2023-08-17T13:53:03;4.60;;;4.30;;
16115;SDS011;8162;47.104;15.432;2023-08-17T13:56:04;4.43;;;4.00;;
16115;SDS011;8162;47.104;15.432;2023-08-17T13:59:04;4.63;;;4.23;;
16115;SDS011;8162;47.104;15.432;2023-08-17T14:02:05;5.00;;;4.70;;
16115;SDS011;8162;47.104;15.432;2023-08-17T14:05:06;4.53;;;4.23;;
16115;SDS011;8162;47.104;15.432;2023-08-17T14:08:07;4.40;;;4.10;;
16115;SDS011;8162;47.104;15.432;2023-08-17T14:11:08;5.13;;;4.73;;
16115;SDS011;8162;47.104;15.432;2023-08-17T14:14:08;5.07;;;4.57;;
16115;SDS011;8162;47.104;15.432;2023-08-17T14:17:09;4.70;;;4.40;;
16115;SDS011;8162;47.104;15.432;2023-08-17T14:20:10;5.10;;;4.67;;
16115;SDS011;8162;47.104;15.432;2023-08-17T14:23:11;4.90;;;4.37;;
16115;SDS011;8162;47.104;15.432;2023-08-17T14:26:11;6.27;;;4.90;;
16115;SDS011;8162;47.104;15.432;2023-08-17T14:29:12;4.80;;;4.50;;
16115;SDS011;8162;47.104;15.432;2023-08-17T14:32:13;5.97;;;5.37;;
16115;SDS011;8162;47.104;15.432;2023-08-17T14:35:14;5.50;;;5.00;;
16115;SDS011;8162;47.104;15.432;2023-08-17T14:38:15;6.13;;;5.30;;
16115;SDS011;8162;47.104;15.432;2023-08-17T14:41:16;5.93;;;5.53;;
16115;SDS011;8162;47.104;15.432;2023-08-17T14:44:17;5.90;;;5.40;;
16115;SDS011;8162;47.104;15.432;2023-08-17T14:47:17;5.87;;;5.37;;
16115;SDS011;8162;47.104;15.432;2023-08-17T14:50:18;6.63;;;6.13;;
16115;SDS011;8162;47.104;15.432;2023-08-17T14:53:19;6.17;;;5.57;;
16115;SDS011;8162;47.104;15.432;2023-08-17T14:56:19;7.13;;;6.43;;
16115;SDS011;8162;47.104;15.432;2023-08-17T14:59:22;6.77;;;6.27;;
16115;SDS011;8162;47.104;15.432;2023-08-17T15:02:23;6.77;;;6.20;;
16115;SDS011;8162;47.104;15.432;2023-08-17T15:05:24;6.67;;;6.17;;
16115;SDS011;8162;47.104;15.432;2023-08-17T15:08:25;6.57;;;6.10;;
16115;SDS011;8162;47.104;15.432;2023-08-17T15:11:25;7.67;;;6.97;;
16115;SDS011;8162;47.104;15.432;2023-08-17T15:14:26;6.93;;;6.30;;
16115;SDS011;8162;47.104;15.432;2023-08-17T15:17:26;7.80;;;6.97;;
16115;SDS011;8162;47.104;15.432;2023-08-17T15:20:27;7.17;;;6.57;;
16115;SDS011;8162;47.104;15.432;2023-08-17T15:23:30;7.00;;;6.33;;
16115;SDS011;8162;47.104;15.432;2023-08-17T15:26:30;7.53;;;6.83;;
16115;SDS011;8162;47.104;15.432;2023-08-17T15:29:32;8.00;;;7.20;;
16115;SDS011;8162;47.104;15.432;2023-08-17T15:32:32;7.20;;;6.60;;
16115;SDS011;8162;47.104;15.432;2023-08-17T15:35:33;7.53;;;6.83;;
16115;SDS011;8162;47.104;15.432;2023-08-17T15:38:33;7.87;;;7.17;;
16115;SDS011;8162;47.104;15.432;2023-08-17T15:41:34;8.30;;;7.60;;
16115;SDS011;8162;47.104;15.432;2023-08-17T15:44:35;7.57;;;6.87;;
16115;SDS011;8162;47.104;15.432;2023-08-17T15:47:35;7.67;;;7.07;;
16115;SDS011;8162;47.104;15.432;2023-08-17T15:50:36;7.80;;;6.97;;
16115;SDS011;8162;47.104;15.432;2023-08-17T15:53:37;7.77;;;7.07;;
16115;SDS011;8162;47.104;15.432;2023-08-17T15:56:40;6.93;;;6.33;;
16115;SDS011;8162;47.104;15.432;2023-08-17T15:59:41;7.03;;;6.43;;
16115;SDS011;8162;47.104;15.432;2023-08-17T16:02:41;7.30;;;6.70;;
16115;SDS011;8162;47.104;15.432;2023-08-17T16:05:42;7.20;;;6.70;;
16115;SDS011;8162;47.104;15.432;2023-08-17T16:08:43;6.97;;;6.33;;
16115;SDS011;8162;47.104;15.432;2023-08-17T16:11:44;7.90;;;6.70;;
16115;SDS011;8162;47.104;15.432;2023-08-17T16:14:44;10.20;;;7.53;;
16115;SDS011;8162;47.104;15.432;2023-08-17T16:17:45;8.33;;;6.80;;
16115;SDS011;8162;47.104;15.432;2023-08-17T16:20:46;7.33;;;6.73;;
16115;SDS011;8162;47.104;15.432;2023-08-17T16:23:46;7.73;;;7.07;;
16115;SDS011;8162;47.104;15.432;2023-08-17T16:26:47;7.53;;;6.60;;
16115;SDS011;8162;47.104;15.432;2023-08-17T16:29:48;7.80;;;7.10;;
16115;SDS011;8162;47.104;15.432;2023-08-17T16:32:48;7.47;;;6.83;;
16115;SDS011;8162;47.104;15.432;2023-08-17T16:35:49;7.83;;;6.73;;
16115;SDS011;8162;47.104;15.432;2023-08-17T16:38:50;7.20;;;6.70;;
16115;SDS011;8162;47.104;15.432;2023-08-17T16:41:51;8.30;;;7.57;;
16115;SDS011;8162;47.104;15.432;2023-08-17T16:44:51;7.20;;;6.60;;
16115;SDS011;8162;47.104;15.432;2023-08-17T16:47:52;7.87;;;7.20;;
16115;SDS011;8162;47.104;15.432;2023-08-17T16:50:53;7.23;;;6.63;;
16115;SDS011;8162;47.104;15.432;2023-08-17T16:53:54;7.43;;;6.83;;
16115;SDS011;8162;47.104;15.432;2023-08-17T16:56:55;7.87;;;7.20;;
16115;SDS011;8162;47.104;15.432;2023-08-17T16:59:56;7.67;;;6.97;;
16115;SDS011;8162;47.104;15.432;2023-08-17T17:02:56;8.13;;;7.43;;
16115;SDS011;8162;47.104;15.432;2023-08-17T17:05:57;7.30;;;6.70;;
16115;SDS011;8162;47.104;15.432;2023-08-17T17:08:58;7.60;;;6.90;;
16115;SDS011;8162;47.104;15.432;2023-08-17T17:12:00;7.47;;;6.77;;
16115;SDS011;8162;47.104;15.432;2023-08-17T17:15:03;8.13;;;7.33;;
16115;SDS011;8162;47.104;15.432;2023-08-17T17:18:04;8.27;;;7.20;;
16115;SDS011;8162;47.104;15.432;2023-08-17T17:21:06;8.13;;;7.43;;
16115;SDS011;8162;47.104;15.432;2023-08-17T17:24:07;8.00;;;7.40;;
16115;SDS011;8162;47.104;15.432;2023-08-17T17:27:08;7.67;;;6.90;;
16115;SDS011;8162;47.104;15.432;2023-08-17T17:30:10;8.20;;;7.60;;
16115;SDS011;8162;47.104;15.432;2023-08-17T17:33:11;8.33;;;7.60;;
16115;SDS011;8162;47.104;15.432;2023-08-17T17:36:12;7.90;;;7.20;;
16115;SDS011;8162;47.104;15.432;2023-08-17T17:39:13;8.00;;;7.30;;
16115;SDS011;8162;47.104;15.432;2023-08-17T17:42:15;7.60;;;6.90;;
16115;SDS011;8162;47.104;15.432;2023-08-17T17:45:17;7.70;;;7.00;;
16115;SDS011;8162;47.104;15.432;2023-08-17T17:48:18;7.77;;;7.20;;
16115;SDS011;8162;47.104;15.432;2023-08-17T17:51:20;8.53;;;7.77;;
16115;SDS011;8162;47.104;15.432;2023-08-17T17:54:23;7.90;;;7.20;;